createdAt,value
2022-11-16T00:01:18.009Z,5.65
2022-11-16T00:03:23.584Z,5.55
2022-11-16T00:05:29.117Z,8.38
2022-11-16T00:07:36.781Z,6.22
2022-11-16T00:09:41.908Z,7.22
2022-11-16T00:11:47.971Z,5.45
2022-11-16T00:13:52.948Z,8.10
2022-11-16T00:15:59.884Z,8.73
2022-11-16T00:18:05.119Z,7.00
2022-11-16T00:20:12.883Z,6.90
2022-11-16T00:22:18.275Z,7.03
2022-11-16T00:24:27.340Z,5.30
2022-11-16T00:26:32.364Z,6.75
2022-11-16T00:28:38.198Z,6.40
2022-11-16T00:30:43.846Z,6.80
2022-11-16T00:32:48.845Z,7.30
2022-11-16T00:34:53.797Z,7.15
2022-11-16T00:36:59.176Z,6.40
2022-11-16T00:39:06.258Z,6.95
2022-11-16T00:41:13.800Z,8.38
2022-11-16T00:43:19.404Z,11.13
2022-11-16T00:45:25.530Z,9.90
2022-11-16T00:47:30.584Z,8.38
2022-11-16T00:49:35.920Z,6.55
2022-11-16T00:51:41.375Z,10.25
2022-11-16T00:53:47.436Z,8.32
2022-11-16T00:55:52.546Z,9.20
2022-11-16T00:58:02.100Z,7.43
2022-11-16T01:00:09.186Z,8.80
2022-11-16T01:02:14.282Z,7.78
2022-11-16T01:04:19.678Z,10.05
2022-11-16T01:06:25.696Z,8.15
2022-11-16T01:08:31.794Z,11.95
2022-11-16T01:10:41.212Z,8.57
2022-11-16T01:12:46.309Z,8.65
2022-11-16T01:14:55.788Z,8.18
2022-11-16T01:17:00.842Z,8.30
2022-11-16T01:19:10.107Z,11.50
2022-11-16T01:21:15.579Z,9.48
2022-11-16T01:23:20.544Z,9.10
2022-11-16T01:25:26.349Z,10.90
2022-11-16T01:27:32.782Z,9.10
2022-11-16T01:29:41.603Z,7.25
2022-11-16T01:31:49.172Z,8.75
2022-11-16T01:33:54.299Z,9.68
2022-11-16T01:36:04.191Z,11.63
2022-11-16T01:38:10.622Z,8.83
2022-11-16T01:40:16.828Z,9.35
2022-11-16T01:42:26.251Z,12.30
2022-11-16T01:45:00.349Z,8.82
2022-11-16T01:47:15.105Z,11.80
2022-11-16T01:49:25.342Z,9.20
2022-11-16T01:51:34.278Z,8.27
2022-11-16T01:53:40.523Z,11.98
2022-11-16T01:55:49.352Z,10.75
2022-11-16T01:58:23.129Z,9.07
2022-11-16T02:00:35.198Z,7.68
2022-11-16T02:03:02.431Z,8.93
2022-11-16T02:05:21.724Z,10.10
2022-11-16T02:08:31.612Z,10.70
2022-11-16T02:10:56.525Z,11.27
2022-11-16T02:13:27.756Z,12.48
2022-11-16T02:15:42.877Z,13.48
2022-11-16T02:18:14.022Z,11.23
2022-11-16T02:21:09.158Z,11.82
2022-11-16T02:23:53.873Z,10.00
2022-11-16T02:26:17.397Z,12.05
2022-11-16T02:28:41.432Z,12.60
2022-11-16T02:30:56.513Z,11.93
2022-11-16T02:33:07.131Z,12.27
2022-11-16T02:35:19.449Z,12.25
2022-11-16T02:37:30.153Z,15.10
2022-11-16T02:39:38.088Z,12.55
2022-11-16T02:41:46.899Z,12.13
2022-11-16T02:44:00.270Z,12.55
2022-11-16T02:46:16.233Z,13.52
2022-11-16T02:48:29.106Z,12.90
2022-11-16T02:50:38.059Z,13.35
2022-11-16T02:54:49.119Z,15.73
2022-11-16T02:56:58.514Z,14.23
2022-11-16T02:59:06.500Z,15.45
2022-11-16T03:01:22.582Z,14.43
2022-11-16T03:03:37.508Z,12.00
2022-11-16T03:05:49.383Z,12.60
2022-11-16T03:08:03.266Z,14.85
2022-11-16T03:10:10.957Z,13.38
2022-11-16T03:12:20.552Z,13.73
2022-11-16T03:14:31.307Z,13.48
2022-11-16T03:16:43.313Z,15.27
2022-11-16T03:18:50.561Z,17.00
2022-11-16T03:21:04.157Z,18.95
2022-11-16T03:23:14.098Z,19.17
2022-11-16T03:25:23.767Z,17.17
2022-11-16T03:27:40.196Z,20.27
2022-11-16T03:29:58.630Z,18.02
2022-11-16T03:32:13.889Z,18.10
2022-11-16T03:34:26.058Z,20.40
2022-11-16T03:36:36.626Z,18.65
2022-11-16T03:38:44.615Z,19.48
2022-11-16T03:40:52.338Z,19.83
2022-11-16T03:43:01.647Z,21.58
2022-11-16T03:45:08.325Z,19.50
2022-11-16T03:47:16.239Z,19.90
2022-11-16T03:49:25.362Z,21.67
2022-11-16T03:51:32.789Z,21.20
2022-11-16T03:53:38.430Z,21.75
2022-11-16T03:55:49.606Z,23.58
2022-11-16T03:57:55.108Z,23.30
2022-11-16T04:00:02.684Z,22.75
2022-11-16T04:02:20.890Z,22.25
2022-11-16T04:04:41.245Z,24.25
2022-11-16T04:06:59.640Z,22.02
2022-11-16T04:09:19.967Z,27.65
2022-11-16T04:11:38.341Z,27.30
2022-11-16T04:13:55.825Z,21.55
2022-11-16T04:16:13.589Z,24.65
2022-11-16T04:20:52.677Z,26.25
2022-11-16T04:23:28.718Z,28.90
2022-11-16T04:25:37.997Z,24.23
2022-11-16T04:27:56.059Z,24.58
2022-11-16T04:30:04.365Z,22.92
2022-11-16T04:32:25.205Z,26.77
2022-11-16T04:34:57.845Z,22.65
2022-11-16T04:37:15.966Z,23.83
2022-11-16T04:39:21.942Z,26.38
2022-11-16T04:41:39.868Z,22.13
2022-11-16T04:43:45.204Z,24.58
2022-11-16T04:46:03.073Z,25.88
2022-11-16T04:48:19.952Z,24.67
2022-11-16T04:50:29.188Z,24.52
2022-11-16T04:52:35.377Z,26.48
2022-11-16T04:54:42.140Z,24.08
2022-11-16T04:56:47.899Z,25.55
2022-11-16T04:58:53.019Z,22.45
2022-11-16T05:00:58.675Z,29.35
2022-11-16T05:03:05.823Z,24.67
2022-11-16T05:05:12.369Z,22.70
2022-11-16T05:07:24.322Z,28.83
2022-11-16T05:09:33.220Z,26.45
2022-11-16T05:11:38.805Z,30.08
2022-11-16T05:13:43.800Z,30.30
2022-11-16T05:15:49.296Z,28.92
2022-11-16T05:17:55.790Z,32.42
2022-11-16T05:20:16.388Z,29.73
2022-11-16T05:22:30.096Z,27.27
2022-11-16T05:24:33.494Z,28.83
2022-11-16T05:26:40.303Z,31.65
2022-11-16T05:28:45.788Z,32.88
2022-11-16T05:30:52.063Z,36.33
2022-11-16T05:33:00.614Z,31.73
2022-11-16T05:35:08.927Z,34.22
2022-11-16T05:37:16.222Z,37.70
2022-11-16T05:41:31.568Z,31.30
2022-11-16T05:43:37.487Z,33.53
2022-11-16T05:45:51.982Z,34.80
2022-11-16T05:48:00.356Z,33.33
2022-11-16T05:50:06.287Z,32.05
2022-11-16T05:52:17.004Z,32.35
2022-11-16T05:54:28.163Z,35.67
2022-11-16T05:56:34.929Z,33.00
2022-11-16T05:58:41.361Z,32.70
2022-11-16T06:00:49.436Z,29.27
2022-11-16T06:02:55.956Z,32.67
2022-11-16T06:05:07.468Z,24.90
2022-11-16T06:07:12.955Z,24.45
2022-11-16T06:09:18.907Z,29.02
2022-11-16T06:11:34.312Z,28.10
2022-11-16T06:13:42.171Z,26.50
2022-11-16T06:15:53.406Z,26.75
2022-11-16T06:17:58.520Z,26.00
2022-11-16T06:20:03.779Z,24.15
2022-11-16T06:22:08.849Z,22.48
2022-11-16T06:24:13.967Z,23.95
2022-11-16T06:26:20.228Z,24.05
2022-11-16T06:28:29.509Z,22.83
2022-11-16T06:30:34.553Z,21.40
2022-11-16T06:32:42.254Z,22.90
2022-11-16T06:34:48.200Z,25.05
2022-11-16T06:36:53.384Z,26.63
2022-11-16T06:39:01.937Z,20.70
2022-11-16T06:41:09.648Z,23.55
2022-11-16T06:43:19.731Z,24.88
2022-11-16T06:45:28.439Z,24.65
2022-11-16T06:47:36.061Z,26.00
2022-11-16T06:49:42.317Z,21.20
2022-11-16T06:51:55.614Z,23.10
2022-11-16T06:54:00.546Z,22.17
2022-11-16T06:56:08.285Z,16.77
2022-11-16T06:58:20.932Z,21.80
2022-11-16T07:00:30.413Z,23.83
2022-11-16T07:02:35.490Z,20.85
2022-11-16T07:04:41.559Z,19.20
2022-11-16T07:06:47.512Z,20.63
2022-11-16T07:08:54.949Z,18.75
2022-11-16T07:11:06.597Z,19.95
2022-11-16T07:13:12.231Z,19.50
2022-11-16T07:15:18.485Z,19.83
2022-11-16T07:17:28.035Z,18.48
2022-11-16T07:19:33.059Z,18.70
2022-11-16T07:21:40.015Z,19.85
2022-11-16T07:23:50.865Z,19.80
2022-11-16T07:26:03.116Z,19.42
2022-11-16T07:28:17.572Z,22.67
2022-11-16T07:30:23.089Z,23.75
2022-11-16T07:32:39.989Z,18.05
2022-11-16T07:35:01.016Z,20.15
2022-11-16T07:37:06.937Z,20.75
2022-11-16T07:39:12.959Z,18.17
2022-11-16T07:41:21.523Z,19.70
2022-11-16T07:43:37.695Z,16.45
2022-11-16T07:45:49.095Z,15.57
2022-11-16T07:47:57.086Z,10.75
2022-11-16T07:50:28.472Z,16.30
2022-11-16T07:52:33.524Z,10.85
2022-11-16T07:54:44.584Z,12.50
2022-11-16T07:56:49.730Z,12.27
2022-11-16T07:58:56.225Z,15.45
2022-11-16T08:01:07.516Z,15.13
2022-11-16T08:03:19.302Z,17.20
2022-11-16T08:05:28.913Z,16.80
2022-11-16T08:07:37.179Z,16.25
2022-11-16T08:09:43.181Z,15.38
2022-11-16T08:11:52.097Z,21.08
2022-11-16T08:13:59.220Z,14.32
2022-11-16T08:16:05.319Z,17.70
2022-11-16T08:18:11.572Z,12.40
2022-11-16T08:20:19.970Z,14.82
2022-11-16T08:22:26.497Z,13.30
2022-11-16T08:24:31.532Z,12.98
2022-11-16T08:26:36.996Z,13.23
2022-11-16T08:28:50.960Z,13.55
2022-11-16T08:30:58.499Z,13.93
2022-11-16T08:33:03.870Z,14.05
2022-11-16T08:35:10.052Z,12.88
2022-11-16T08:37:18.670Z,15.48
2022-11-16T08:39:24.278Z,11.45
2022-11-16T08:41:32.188Z,11.25
2022-11-16T08:43:39.542Z,10.18
2022-11-16T08:45:50.385Z,10.02
2022-11-16T08:48:03.501Z,10.05
2022-11-16T08:50:12.952Z,10.98
2022-11-16T08:52:21.204Z,12.10
2022-11-16T08:54:31.165Z,10.55
2022-11-16T08:56:37.035Z,10.68
2022-11-16T08:58:47.112Z,11.95
2022-11-16T09:00:53.193Z,11.32
2022-11-16T09:02:59.438Z,10.15
2022-11-16T09:05:04.447Z,9.43
2022-11-16T09:07:09.807Z,9.98
2022-11-16T09:09:17.466Z,9.98
2022-11-16T09:11:25.171Z,10.20
2022-11-16T09:13:31.085Z,9.02
2022-11-16T09:15:36.128Z,11.20
2022-11-16T09:17:41.442Z,10.25
2022-11-16T09:19:46.466Z,9.02
2022-11-16T09:21:51.810Z,12.63
2022-11-16T09:23:58.101Z,8.65
2022-11-16T09:26:08.237Z,9.45
2022-11-16T09:28:14.168Z,8.48
2022-11-16T09:30:20.341Z,10.98
2022-11-16T09:32:25.344Z,8.77
2022-11-16T09:34:30.433Z,9.30
2022-11-16T09:36:35.435Z,8.27
2022-11-16T09:41:36.120Z,9.82
2022-11-16T09:43:56.691Z,10.20
2022-11-16T09:46:10.909Z,7.50
2022-11-16T09:48:19.046Z,10.98
2022-11-16T09:50:47.761Z,9.70
2022-11-16T09:52:58.347Z,6.63
2022-11-16T09:55:14.872Z,7.95
2022-11-16T09:59:41.572Z,7.82
2022-11-16T10:01:53.495Z,7.35
2022-11-16T10:04:06.894Z,8.45
2022-11-16T10:06:22.728Z,7.43
2022-11-16T10:08:43.263Z,6.22
2022-11-16T10:11:01.805Z,8.40
2022-11-16T10:13:24.685Z,9.43
2022-11-16T10:15:48.416Z,10.07
2022-11-16T10:18:22.166Z,8.10
2022-11-16T10:20:52.502Z,9.63
2022-11-16T10:23:08.310Z,6.47
2022-11-16T10:25:19.551Z,9.07
2022-11-16T10:27:51.879Z,9.02
2022-11-16T10:30:12.392Z,8.13
2022-11-16T10:32:28.819Z,7.03
2022-11-16T10:34:51.604Z,8.82
2022-11-16T10:37:04.981Z,6.25
2022-11-16T10:39:22.222Z,7.53
2022-11-16T10:41:35.607Z,6.20
2022-11-16T10:43:41.238Z,6.45
2022-11-16T10:46:00.541Z,9.27
2022-11-16T10:48:18.575Z,8.77
2022-11-16T10:50:35.873Z,6.88
2022-11-16T10:52:40.798Z,6.25
2022-11-16T10:54:46.038Z,5.50
2022-11-16T10:57:00.789Z,6.70
2022-11-16T10:59:08.704Z,7.53
2022-11-16T11:01:16.376Z,6.65
2022-11-16T11:03:34.724Z,6.18
2022-11-16T11:05:48.920Z,6.93
2022-11-16T11:08:02.970Z,4.90
2022-11-16T11:10:30.453Z,5.43
2022-11-16T11:12:38.938Z,6.97
2022-11-16T11:14:43.940Z,5.63
2022-11-16T11:16:55.983Z,6.38
2022-11-16T11:19:19.493Z,5.13
2022-11-16T11:21:28.301Z,6.63
2022-11-16T11:23:40.846Z,5.25
2022-11-16T11:25:55.058Z,5.22
2022-11-16T11:28:10.964Z,4.05
2022-11-16T11:30:22.821Z,6.28
2022-11-16T11:32:36.806Z,8.75
2022-11-16T11:34:46.180Z,6.63
2022-11-16T11:36:56.802Z,4.00
2022-11-16T11:39:05.944Z,9.55
2022-11-16T11:41:22.208Z,3.85
2022-11-16T11:43:29.650Z,2.92
2022-11-16T11:45:47.784Z,6.60
2022-11-16T11:48:01.921Z,4.35
2022-11-16T11:50:17.106Z,3.47
2022-11-16T11:52:33.208Z,6.45
2022-11-16T11:54:46.922Z,5.50
2022-11-16T11:56:52.137Z,4.22
2022-11-16T11:58:57.591Z,6.78
2022-11-16T12:02:07.126Z,4.90
2022-11-16T12:04:59.934Z,4.30
2022-11-16T12:07:15.440Z,4.25
2022-11-16T12:09:37.189Z,4.97
2022-11-16T12:12:02.669Z,7.07
2022-11-16T12:14:25.777Z,6.18
2022-11-16T12:16:39.943Z,7.30
2022-11-16T12:19:04.006Z,2.25
2022-11-16T12:21:16.325Z,3.55
2022-11-16T12:23:42.841Z,4.65
2022-11-16T12:25:59.786Z,5.90
2022-11-16T12:28:21.400Z,3.47
2022-11-16T12:30:27.550Z,3.15
2022-11-16T12:32:58.957Z,4.22
2022-11-16T12:35:31.481Z,4.18
2022-11-16T12:37:49.418Z,8.50
2022-11-16T12:40:11.173Z,6.75
2022-11-16T12:42:36.368Z,4.78
2022-11-16T12:45:06.967Z,3.33
2022-11-16T12:47:22.807Z,6.35
2022-11-16T12:49:47.643Z,4.10
2022-11-16T12:52:09.719Z,4.28
2022-11-16T12:55:24.080Z,7.18
2022-11-16T12:57:27.902Z,5.72
2022-11-16T13:00:05.705Z,6.10
2022-11-16T13:02:26.204Z,5.28
2022-11-16T13:04:39.332Z,5.63
2022-11-16T13:06:52.615Z,7.30
2022-11-16T13:09:08.563Z,8.52
2022-11-16T13:11:23.317Z,4.75
2022-11-16T13:13:38.589Z,8.65
2022-11-16T13:15:47.824Z,7.78
2022-11-16T13:17:59.489Z,10.15
2022-11-16T13:20:31.212Z,7.82
2022-11-16T13:22:39.605Z,8.07
2022-11-16T13:24:53.345Z,5.18
2022-11-16T13:27:26.073Z,5.28
2022-11-16T13:29:40.400Z,8.65
2022-11-16T13:31:52.415Z,8.18
2022-11-16T13:34:02.523Z,7.55
2022-11-16T13:36:46.243Z,9.07
2022-11-16T13:41:30.207Z,11.30
2022-11-16T13:43:38.081Z,3.72
2022-11-16T13:45:47.043Z,11.65
2022-11-16T13:47:53.672Z,7.25
2022-11-16T13:50:01.994Z,10.43
2022-11-16T13:52:40.224Z,6.13
2022-11-16T13:54:46.124Z,8.82
2022-11-16T13:56:54.203Z,8.03
2022-11-16T13:59:02.353Z,9.13
2022-11-16T14:01:10.919Z,8.73
2022-11-16T14:03:39.351Z,6.35
2022-11-16T14:05:47.363Z,7.30
2022-11-16T14:09:57.679Z,6.25
2022-11-16T14:12:58.933Z,7.57
2022-11-16T14:15:17.140Z,7.35
2022-11-16T14:17:53.378Z,10.70
2022-11-16T14:19:58.709Z,6.47
2022-11-16T14:22:11.768Z,8.07
2022-11-16T14:24:31.268Z,8.73
2022-11-16T14:26:51.102Z,6.65
2022-11-16T14:29:25.705Z,6.85
2022-11-16T14:31:48.405Z,6.78
2022-11-16T14:33:56.194Z,8.75
2022-11-16T14:38:23.966Z,7.07
2022-11-16T14:40:29.759Z,9.75
2022-11-16T14:42:54.751Z,5.75
2022-11-16T14:45:07.586Z,6.15
2022-11-16T14:47:27.190Z,10.30
2022-11-16T14:49:38.487Z,7.35
2022-11-16T14:51:48.937Z,8.82
2022-11-16T14:53:57.659Z,7.47
2022-11-16T14:56:14.521Z,11.52
2022-11-16T14:58:22.852Z,6.90
2022-11-16T15:00:30.288Z,14.07
2022-11-16T15:02:38.457Z,9.90
2022-11-16T15:04:43.507Z,4.82
2022-11-16T15:06:54.012Z,6.72
2022-11-16T15:09:05.080Z,7.95
2022-11-16T15:11:23.366Z,4.40
2022-11-16T15:13:31.573Z,12.27
2022-11-16T15:15:37.265Z,12.90
2022-11-16T15:17:47.628Z,11.60
2022-11-16T15:19:59.992Z,7.47
2022-11-16T15:22:07.203Z,5.93
2022-11-16T15:24:29.812Z,7.18
2022-11-16T15:26:36.267Z,8.85
2022-11-16T15:28:48.732Z,11.93
2022-11-16T15:30:57.825Z,8.88
2022-11-16T15:33:19.012Z,10.15
2022-11-16T15:35:26.963Z,7.90
2022-11-16T15:39:39.347Z,15.80
2022-11-16T15:41:46.159Z,10.10
2022-11-16T15:44:13.268Z,8.70
2022-11-16T15:46:20.513Z,9.90
2022-11-16T15:48:31.173Z,17.33
2022-11-16T15:50:36.169Z,19.25
2022-11-16T15:52:45.892Z,19.60
2022-11-16T15:55:06.807Z,23.48
2022-11-16T15:57:15.811Z,16.83
2022-11-16T15:59:27.875Z,9.30
2022-11-16T16:01:33.598Z,13.52
2022-11-16T16:03:41.871Z,10.38
2022-11-16T16:05:48.824Z,12.50
2022-11-16T16:07:53.797Z,11.80
2022-11-16T16:10:16.854Z,15.23
2022-11-16T16:12:23.807Z,13.95
2022-11-16T16:14:33.486Z,9.43
2022-11-16T16:16:40.429Z,13.40
2022-11-16T16:18:49.631Z,12.82
2022-11-16T16:20:54.621Z,12.10
2022-11-16T16:23:11.209Z,12.52
2022-11-16T16:25:34.383Z,15.97
2022-11-16T16:27:43.155Z,12.05
2022-11-16T16:29:49.556Z,10.73
2022-11-16T16:31:54.695Z,15.13
2022-11-16T16:34:02.276Z,11.77
2022-11-16T16:36:11.469Z,12.27
2022-11-16T16:38:17.202Z,18.17
2022-11-16T16:40:22.473Z,17.48
2022-11-16T16:42:27.922Z,12.90
2022-11-16T16:44:33.560Z,38.28
2022-11-16T16:46:38.485Z,24.40
2022-11-16T16:48:44.876Z,34.58
2022-11-16T16:50:52.519Z,23.42
2022-11-16T16:52:58.101Z,19.58
2022-11-16T16:55:03.364Z,10.20
2022-11-16T16:57:08.355Z,11.02
2022-11-16T16:59:16.729Z,11.02
2022-11-16T17:01:22.141Z,12.43
2022-11-16T17:03:27.671Z,10.88
2022-11-16T17:05:34.765Z,9.30
2022-11-16T17:07:43.340Z,10.60
2022-11-16T17:09:48.986Z,14.68
2022-11-16T17:11:53.959Z,10.77
2022-11-16T17:13:59.876Z,9.35
2022-11-16T17:16:08.458Z,13.32
2022-11-16T17:18:13.421Z,13.52
2022-11-16T17:20:18.914Z,13.85
2022-11-16T17:22:24.745Z,21.90
2022-11-16T17:24:32.321Z,9.40
2022-11-16T17:28:42.934Z,11.82
2022-11-16T17:30:47.882Z,11.93
2022-11-16T17:32:53.653Z,15.23
2022-11-16T17:34:58.840Z,19.10
2022-11-16T17:37:03.847Z,14.80
2022-11-16T17:39:08.827Z,10.43
2022-11-16T17:41:20.110Z,11.43
2022-11-16T17:43:25.447Z,9.90
2022-11-16T17:45:30.440Z,11.73
2022-11-16T17:47:36.101Z,18.40
2022-11-16T17:49:41.374Z,14.65
2022-11-16T17:51:47.418Z,16.17
2022-11-16T17:53:52.514Z,31.55
2022-11-16T17:55:58.304Z,29.77
2022-11-16T17:58:06.865Z,24.42
2022-11-16T18:02:18.908Z,18.95
2022-11-16T18:04:23.983Z,22.52
2022-11-16T18:06:29.499Z,32.75
2022-11-16T18:08:35.245Z,28.85
2022-11-16T18:10:41.237Z,23.73
2022-11-16T18:12:46.925Z,21.83
2022-11-16T18:15:21.275Z,18.08
2022-11-16T18:17:19.896Z,21.05
2022-11-16T18:19:25.230Z,20.48
2022-11-16T18:21:31.338Z,15.80
2022-11-16T18:23:37.850Z,16.27
2022-11-16T18:25:42.976Z,14.48
2022-11-16T18:27:52.406Z,17.73
2022-11-16T18:30:00.294Z,16.10
2022-11-16T18:34:10.817Z,13.52
2022-11-16T18:36:16.479Z,16.33
2022-11-16T18:38:21.459Z,13.20
2022-11-16T18:40:26.822Z,13.80
2022-11-16T18:42:32.264Z,15.68
2022-11-16T18:44:37.672Z,16.77
2022-11-16T18:46:45.605Z,17.15
2022-11-16T18:48:50.941Z,19.85
2022-11-16T18:50:55.974Z,13.85
2022-11-16T18:53:01.391Z,15.00
2022-11-16T18:55:07.009Z,11.95
2022-11-16T18:57:13.029Z,12.70
2022-11-16T18:59:18.096Z,16.00
2022-11-16T19:01:25.543Z,17.77
2022-11-16T19:03:34.637Z,14.23
2022-11-16T19:05:39.805Z,13.07
2022-11-16T19:07:45.161Z,14.95
2022-11-16T19:09:50.601Z,13.18
2022-11-16T19:11:55.569Z,11.10
2022-11-16T19:14:04.436Z,19.73
2022-11-16T19:16:11.188Z,14.95
2022-11-16T19:18:21.300Z,17.15
2022-11-16T19:20:29.854Z,15.27
2022-11-16T19:24:40.596Z,14.88
2022-11-16T19:26:45.596Z,10.27
2022-11-16T19:28:53.010Z,16.48
2022-11-16T19:30:57.937Z,16.23
2022-11-16T19:33:04.117Z,21.10
2022-11-16T19:35:11.110Z,14.15
2022-11-16T19:37:18.844Z,16.37
2022-11-16T19:39:23.804Z,16.73
2022-11-16T19:41:30.670Z,19.13
2022-11-16T19:43:36.069Z,17.50
2022-11-16T19:45:41.430Z,18.30
2022-11-16T19:47:46.644Z,10.70
2022-11-16T19:49:51.805Z,15.43
2022-11-16T19:51:56.944Z,13.10
2022-11-16T19:54:05.700Z,14.90
2022-11-16T19:56:14.519Z,14.93
2022-11-16T19:58:19.496Z,13.45
2022-11-16T20:00:25.040Z,16.08
2022-11-16T20:02:30.187Z,18.30
2022-11-16T20:04:36.025Z,15.20
2022-11-16T20:06:42.150Z,13.48
2022-11-16T20:08:52.680Z,12.82
2022-11-16T20:11:00.146Z,12.52
2022-11-16T20:13:05.146Z,16.30
2022-11-16T20:15:11.497Z,18.95
2022-11-16T20:17:16.453Z,13.77
2022-11-16T20:19:21.728Z,11.18
2022-11-16T20:21:29.113Z,18.92
2022-11-16T20:23:34.811Z,18.58
2022-11-16T20:25:43.602Z,15.95
2022-11-16T20:27:51.104Z,11.75
2022-11-16T20:29:56.101Z,16.42
2022-11-16T20:32:01.084Z,16.77
2022-11-16T20:34:11.449Z,15.68
2022-11-16T20:36:16.399Z,14.75
2022-11-16T20:38:21.524Z,13.40
2022-11-16T20:40:27.668Z,17.90
2022-11-16T20:42:32.663Z,17.15
2022-11-16T20:44:40.242Z,15.95
2022-11-16T20:46:45.350Z,15.15
2022-11-16T20:48:50.453Z,13.90
2022-11-16T20:50:58.424Z,16.08
2022-11-16T20:55:09.528Z,15.93
2022-11-16T20:57:14.484Z,16.45
2022-11-16T20:59:19.627Z,14.93
2022-11-16T21:01:31.943Z,11.20
2022-11-16T21:03:37.631Z,13.15
2022-11-16T21:05:45.309Z,24.92
2022-11-16T21:07:50.284Z,19.85
2022-11-16T21:10:08.413Z,17.50
2022-11-16T21:16:39.494Z,16.20
2022-11-16T21:18:45.066Z,15.93
2022-11-16T21:20:50.061Z,13.25
2022-11-16T21:22:55.080Z,11.77
2022-11-16T21:25:00.766Z,16.15
2022-11-16T21:27:05.725Z,13.57
2022-11-16T21:29:11.073Z,11.45
2022-11-16T21:31:18.788Z,14.55
2022-11-16T21:33:26.707Z,16.10
2022-11-16T21:37:36.681Z,17.02
2022-11-16T21:39:41.983Z,21.00
2022-11-16T21:41:48.039Z,13.23
2022-11-16T21:43:53.352Z,13.73
2022-11-16T21:46:05.913Z,15.70
2022-11-16T21:48:12.302Z,23.38
2022-11-16T21:50:35.780Z,12.80
2022-11-16T21:52:41.099Z,14.27
2022-11-16T21:54:56.729Z,14.68
2022-11-16T21:57:01.641Z,17.60
2022-11-16T21:59:07.011Z,10.48
2022-11-16T22:01:14.220Z,13.80
2022-11-16T22:03:20.051Z,15.45
2022-11-16T22:05:40.218Z,23.05
2022-11-16T22:07:43.006Z,27.13
2022-11-16T22:09:47.992Z,36.22
2022-11-16T22:11:53.699Z,29.27
2022-11-16T22:13:59.069Z,19.60
2022-11-16T22:16:08.153Z,20.33
2022-11-16T22:18:14.282Z,14.98
2022-11-16T22:20:20.626Z,20.00
2022-11-16T22:22:28.744Z,16.92
2022-11-16T22:24:33.717Z,15.57
2022-11-16T22:26:40.298Z,16.13
2022-11-16T22:28:45.540Z,15.48
2022-11-16T22:30:52.169Z,18.23
2022-11-16T22:32:57.335Z,19.45
2022-11-16T22:35:02.274Z,15.02
2022-11-16T22:37:07.641Z,15.93
2022-11-16T22:39:15.494Z,13.48
2022-11-16T22:43:27.872Z,17.17
2022-11-16T22:45:32.908Z,22.25
2022-11-16T22:47:37.924Z,17.08
2022-11-16T22:49:43.283Z,18.27
2022-11-16T22:51:48.927Z,19.58
2022-11-16T22:53:56.544Z,20.83
2022-11-16T22:56:10.829Z,17.08
2022-11-16T22:58:15.953Z,21.15
2022-11-16T23:00:22.079Z,29.35
2022-11-16T23:02:27.073Z,20.17
2022-11-16T23:04:32.054Z,18.92
2022-11-16T23:06:37.264Z,18.40
2022-11-16T23:08:42.668Z,14.52
2022-11-16T23:11:00.215Z,19.83
2022-11-16T23:13:20.953Z,15.43
2022-11-16T23:15:39.166Z,16.40
2022-11-16T23:17:44.869Z,17.88
2022-11-16T23:20:02.330Z,16.10
2022-11-16T23:22:21.620Z,13.75
2022-11-16T23:24:39.779Z,13.30
2022-11-16T23:26:57.156Z,11.18
2022-11-16T23:29:08.358Z,10.77
2022-11-16T23:31:13.705Z,10.85
2022-11-16T23:33:39.259Z,9.68
2022-11-16T23:35:44.514Z,8.52
2022-11-16T23:37:54.461Z,7.13
2022-11-16T23:39:59.389Z,10.52
2022-11-16T23:42:17.722Z,9.77
2022-11-16T23:44:25.230Z,11.52
2022-11-16T23:48:36.752Z,8.80
2022-11-16T23:50:42.074Z,10.38
2022-11-16T23:52:47.336Z,8.32
2022-11-16T23:54:52.299Z,11.60
2022-11-16T23:56:57.261Z,7.65
2022-11-16T23:59:03.300Z,13.48
